Map

Track Data

SID SEASON NUMBER BASIN SUBBASIN NAME ISO_TIME NATURE LAT LON WMO_WIND WMO_PRES WMO_AGENCY TRACK_TYPE DIST2LAND LANDFALL IFLAG USA_AGENCY USA_ATCF_ID USA_LAT USA_LON USA_RECORD USA_STATUS USA_WIND USA_PRES USA_SSHS USA_R34_NE USA_R34_SE USA_R34_SW USA_R34_NW USA_R50_NE USA_R50_SE USA_R50_SW USA_R50_NW USA_R64_NE USA_R64_SE USA_R64_SW USA_R64_NW USA_POCI USA_ROCI USA_RMW USA_EYE TOKYO_LAT TOKYO_LON TOKYO_GRADE TOKYO_WIND TOKYO_PRES TOKYO_R50_DIR TOKYO_R50_LONG TOKYO_R50_SHORT TOKYO_R30_DIR TOKYO_R30_LONG TOKYO_R30_SHORT TOKYO_LAND CMA_LAT CMA_LON CMA_CAT CMA_WIND CMA_PRES HKO_LAT HKO_LON HKO_CAT HKO_WIND HKO_PRES NEWDELHI_LAT NEWDELHI_LON NEWDELHI_GRADE NEWDELHI_WIND NEWDELHI_PRES NEWDELHI_CI NEWDELHI_DP NEWDELHI_POCI REUNION_LAT REUNION_LON REUNION_TYPE REUNION_WIND REUNION_PRES REUNION_TNUM REUNION_CI REUNION_RMW REUNION_R34_NE REUNION_R34_SE REUNION_R34_SW REUNION_R34_NW REUNION_R50_NE REUNION_R50_SE REUNION_R50_SW REUNION_R50_NW REUNION_R64_NE REUNION_R64_SE REUNION_R64_SW REUNION_R64_NW BOM_LAT BOM_LON BOM_TYPE BOM_WIND BOM_PRES BOM_TNUM BOM_CI BOM_RMW BOM_R34_NE BOM_R34_SE BOM_R34_SW BOM_R34_NW BOM_R50_NE BOM_R50_SE BOM_R50_SW BOM_R50_NW BOM_R64_NE BOM_R64_SE BOM_R64_SW BOM_R64_NW BOM_ROCI BOM_POCI BOM_EYE BOM_POS_METHOD BOM_PRES_METHOD NADI_LAT NADI_LON NADI_CAT NADI_WIND NADI_PRES WELLINGTON_LAT WELLINGTON_LON WELLINGTON_WIND WELLINGTON_PRES DS824_LAT DS824_LON DS824_STAGE DS824_WIND DS824_PRES TD9636_LAT TD9636_LON TD9636_STAGE TD9636_WIND TD9636_PRES TD9635_LAT TD9635_LON TD9635_WIND TD9635_PRES TD9635_ROCI NEUMANN_LAT NEUMANN_LON NEUMANN_CLASS NEUMANN_WIND NEUMANN_PRES MLC_LAT MLC_LON MLC_CLASS MLC_WIND MLC_PRES USA_GUST BOM_GUST BOM_GUST_PER REUNION_GUST REUNION_GUST_PER USA_SEAHGT USA_SEARAD_NE USA_SEARAD_SE USA_SEARAD_SW USA_SEARAD_NW STORM_SPEED STORM_DIR
1865252N15319 1865 17 NA NA NOT_NAMED 1865-09-08 12:00:00 TS 15.0000 -41.0000 main 1645 1624 _____________O -1 15.0000 -41.0000 TD 30 10 289
1865252N15319 1865 17 NA NA NOT_NAMED 1865-09-08 15:00:00 TS 15.1627 -41.4998 main 1625 1598 _____________P -1 15.1627 -41.4998 TD 30 10 287
1865252N15319 1865 17 NA NA NOT_NAMED 1865-09-08 18:00:00 TS 15.3000 -42.0000 main 1598 1572 _____________O -1 15.3000 -42.0000 TD 30 10 284
1865252N15319 1865 17 NA NA NOT_NAMED 1865-09-08 21:00:00 TS 15.3999 -42.5002 main 1572 1548 _____________P -1 15.3999 -42.5002 TD 32 10 282
1865252N15319 1865 17 NA NA NOT_NAMED 1865-09-09 00:00:00 TS 15.5000 -43.0000 main 1548 1526 _____________O -1 15.5000 -43.0000 TS 35 10 285
1865252N15319 1865 17 NA NA NOT_NAMED 1865-09-09 03:00:00 TS 15.6499 -43.5000 main 1526 1513 _____________P -1 15.6499 -43.5000 TS 35 10 287
1865252N15319 1865 17 NA NA NOT_NAMED 1865-09-09 06:00:00 TS 15.8000 -44.0000 main 1513 1489 _____________O -1 15.8000 -44.0000 TS 35 10 284
1865252N15319 1865 17 NA NA NOT_NAMED 1865-09-09 09:00:00 TS 15.8849 -44.5003 main 1489 1466 _____________P -1 15.8849 -44.5003 TS 35 10 282
1865252N15319 1865 17 NA NA NOT_NAMED 1865-09-09 12:00:00 TS 16.0000 -45.0000 main 1466 1455 _____________O -1 16.0000 -45.0000 TS 35 10 290
1865252N15319 1865 17 NA NA NOT_NAMED 1865-09-09 15:00:00 TS 16.2274 -45.5000 main 1455 1451 _____________P -1 16.2274 -45.5000 TS 35 11 298
1865252N15319 1865 17 NA NA NOT_NAMED 1865-09-09 18:00:00 TS 16.5000 -46.0000 main 1456 1449 _____________O -1 16.5000 -46.0000 TS 35 11 299
1865252N15319 1865 17 NA NA NOT_NAMED 1865-09-09 21:00:00 TS 16.7499 -46.5001 main 1449 1449 _____________P -1 16.7499 -46.5001 TS 35 11 298
1865252N15319 1865 17 NA NA NOT_NAMED 1865-09-10 00:00:00 TS 17.0000 -47.0000 main 1454 1450 _____________O -1 17.0000 -47.0000 TS 35 11 298
1865252N15319 1865 17 NA NA NOT_NAMED 1865-09-10 03:00:00 TS 17.2499 -47.5001 main 1452 1452 _____________P -1 17.2499 -47.5001 TS 35 11 298
1865252N15319 1865 17 NA NA NOT_NAMED 1865-09-10 06:00:00 TS 17.5000 -48.0000 main 1462 1458 _____________O -1 17.5000 -48.0000 TS 35 11 297
1865252N15319 1865 17 NA NA NOT_NAMED 1865-09-10 09:00:00 TS 17.7425 -48.5151 main 1459 1459 _____________P -1 17.7425 -48.5151 TS 35 11 298
1865252N15319 1865 17 NA NA NOT_NAMED 1865-09-10 12:00:00 TS 18.0000 -49.0000 main 1467 1463 _____________O -1 18.0000 -49.0000 TS 35 10 303
1865252N15319 1865 17 NA NA NOT_NAMED 1865-09-10 15:00:00 TS 18.2998 -49.4076 main 1483 1479 _____________P -1 18.2998 -49.4076 TS 35 10 308
1865252N15319 1865 17 NA NA NOT_NAMED 1865-09-10 18:00:00 TS 18.6000 -49.8000 main 1494 1472 _____________O -1 18.6000 -49.8000 TS 35 10 305
1865252N15319 1865 17 NA NA NOT_NAMED 1865-09-10 21:00:00 TS 18.8500 -50.2502 main 1464 1451 _____________P -1 18.8500 -50.2502 TS 35 10 300
1865252N15319 1865 17 NA NA NOT_NAMED 1865-09-11 00:00:00 TS 19.1000 -50.7000 main 1451 1441 _____________O -1 19.1000 -50.7000 TS 35 10 304
1865252N15319 1865 17 NA NA NOT_NAMED 1865-09-11 03:00:00 TS 19.3999 -51.1076 main 1441 1432 _____________P -1 19.3999 -51.1076 TS 35 10 308
1865252N15319 1865 17 NA NA NOT_NAMED 1865-09-11 06:00:00 TS 19.7000 -51.5000 main 1432 1417 _____________O -1 19.7000 -51.5000 TS 35 9 305
1865252N15319 1865 17 NA NA NOT_NAMED 1865-09-11 09:00:00 TS 19.9275 -51.9153 main 1418 1409 _____________P -1 19.9275 -51.9153 TS 35 9 304
1865252N15319 1865 17 NA NA NOT_NAMED 1865-09-11 12:00:00 TS 20.2000 -52.3000 main 1409 1382 _____________O -1 20.2000 -52.3000 TS 35 10 316
1865252N15319 1865 17 NA NA NOT_NAMED 1865-09-11 15:00:00 TS 20.6124 -52.6151 main 1384 1360 _____________P -1 20.6124 -52.6151 TS 35 11 328
1865252N15319 1865 17 NA NA NOT_NAMED 1865-09-11 18:00:00 TS 21.1000 -52.9000 main 1362 1341 _____________O -1 21.1000 -52.9000 TS 35 11 331
1865252N15319 1865 17 NA NA NOT_NAMED 1865-09-11 21:00:00 TS 21.5999 -53.2001 main 1343 1324 _____________P -1 21.5999 -53.2001 TS 37 12 331
1865252N15319 1865 17 NA NA NOT_NAMED 1865-09-12 00:00:00 TS 22.1000 -53.5000 main 1327 1311 _____________O -1 22.1000 -53.5000 TS 40 11 330
1865252N15319 1865 17 NA NA NOT_NAMED 1865-09-12 03:00:00 TS 22.5499 -53.8003 main 1311 1297 _____________P -1 22.5499 -53.8003 TS 40 11 328
1865252N15319 1865 17 NA NA NOT_NAMED 1865-09-12 06:00:00 TS 23.0000 -54.1000 main 1301 1289 _____________O -1 23.0000 -54.1000 TS 40 11 328
1865252N15319 1865 17 NA NA NOT_NAMED 1865-09-12 09:00:00 TS 23.5001 -54.4446 main 1294 1285 _____________P -1 23.5001 -54.4446 TS 40 11 331
1865252N15319 1865 17 NA NA NOT_NAMED 1865-09-12 12:00:00 TS 24.0000 -54.7000 main 1290 1290 _____________O -1 24.0000 -54.7000 TS 40 10 344
1865252N15319 1865 17 NA NA NOT_NAMED 1865-09-12 15:00:00 TS 24.4574 -54.7455 main 1317 1317 _____________P -1 24.4574 -54.7455 TS 40 9 0
1865252N15319 1865 17 NA NA NOT_NAMED 1865-09-12 18:00:00 TS 24.9000 -54.7000 main 1339 1339 _____________O -1 24.9000 -54.7000 TS 40 9 1
1865252N15319 1865 17 NA NA NOT_NAMED 1865-09-12 21:00:00 TS 25.3500 -54.7222 main 1362 1362 _____________P -1 25.3500 -54.7222 TS 40 9 0
1865252N15319 1865 17 NA NA NOT_NAMED 1865-09-13 00:00:00 TS 25.8000 -54.7000 main 1393 1393 _____________O -1 25.8000 -54.7000 TS 40 9 9
1865252N15319 1865 17 NA NA NOT_NAMED 1865-09-13 03:00:00 TS 26.2425 -54.5652 main 1427 1427 _____________P -1 26.2425 -54.5652 TS 40 9 17
1865252N15319 1865 17 NA NA NOT_NAMED 1865-09-13 06:00:00 TS 26.7000 -54.4000 main 1476 1476 _____________O -1 26.7000 -54.4000 TS 40 10 12
1865252N15319 1865 17 NA NA NOT_NAMED 1865-09-13 09:00:00 TS 27.2073 -54.3294 main 1517 1517 _____________P -1 27.2073 -54.3294 TS 42 10 10
1865252N15319 1865 17 NA NA NOT_NAMED 1865-09-13 12:00:00 TS 27.7000 -54.2000 main 1560 1560 _____________O -1 27.7000 -54.2000 TS 45 10 24
1865252N15319 1865 17 NA NA NOT_NAMED 1865-09-13 15:00:00 TS 28.1152 -53.8802 main 1611 1611 _____________P -1 28.1152 -53.8802 TS 45 10 38
1865252N15319 1865 17 NA NA NOT_NAMED 1865-09-13 18:00:00 TS 28.5000 -53.5000 main 1670 1670 _____________O -1 28.5000 -53.5000 TS 45 10 37
1865252N15319 1865 17 NA NA NOT_NAMED 1865-09-13 21:00:00 TS 28.8998 -53.1996 main 1721 1721 _____________P -1 28.8998 -53.1996 TS 45 10 33
1865252N15319 1865 17 NA NA NOT_NAMED 1865-09-14 00:00:00 TS 29.3000 -52.9000 main 1772 1772 _____________O -1 29.3000 -52.9000 TS 45 10 35
1865252N15319 1865 17 NA NA NOT_NAMED 1865-09-14 03:00:00 TS 29.7075 -52.5574 main 1823 1823 _____________P -1 29.7075 -52.5574 TS 45 10 37
1865252N15319 1865 17 NA NA NOT_NAMED 1865-09-14 06:00:00 TS 30.1000 -52.2000 main 1839 1795 _____________O -1 30.1000 -52.2000 TS 45 10 37
1865252N15319 1865 17 NA NA NOT_NAMED 1865-09-14 09:00:00 TS 30.4795 -51.8871 main 1795 1764 _____________P -1 30.4795 -51.8871 TS 45 9 41
1865252N15319 1865 17 NA NA NOT_NAMED 1865-09-14 12:00:00 TS 30.8000 -51.5000 main 1765 1745 _____________O -1 30.8000 -51.5000 TS 45 10 57
1865252N15319 1865 17 NA NA NOT_NAMED 1865-09-14 15:00:00 TS 31.0228 -50.9297 main 1747 1729 _____________P -1 31.0228 -50.9297 TS 45 11 69
1865252N15319 1865 17 NA NA NOT_NAMED 1865-09-14 18:00:00 TS 31.2000 -50.3000 main 1732 1715 _____________O -1 31.2000 -50.3000 TS 45 11 70
1865252N15319 1865 17 NA NA NOT_NAMED 1865-09-14 21:00:00 TS 31.3997 -49.7422 main 1718 1702 _____________P -1 31.3997 -49.7422 TS 45 10 67
1865252N15319 1865 17 NA NA NOT_NAMED 1865-09-15 00:00:00 TS 31.6000 -49.2000 main 1704 1689 _____________O -1 31.6000 -49.2000 TS 45 10 66
1865252N15319 1865 17 NA NA NOT_NAMED 1865-09-15 03:00:00 TS 31.8073 -48.6499 main 1693 1679 _____________P -1 31.8073 -48.6499 TS 47 10 67
1865252N15319 1865 17 NA NA NOT_NAMED 1865-09-15 06:00:00 TS 32.0000 -48.1000 main 1682 1675 _____________O -1 32.0000 -48.1000 TS 50 10 69
1865252N15319 1865 17 NA NA NOT_NAMED 1865-09-15 09:00:00 TS 32.1569 -47.5721 main 1671 1671 _____________P -1 32.1569 -47.5721 TS 50 10 72
1865252N15319 1865 17 NA NA NOT_NAMED 1865-09-15 12:00:00 TS 32.3000 -47.0000 main 1676 1674 _____________O -1 32.3000 -47.0000 TS 50 11 74
1865252N15319 1865 17 NA NA NOT_NAMED 1865-09-15 15:00:00 TS 32.4500 -46.3224 main 1685 1674 _____________P -1 32.4500 -46.3224 TS 50 12 76
1865252N15319 1865 17 NA NA NOT_NAMED 1865-09-15 18:00:00 TS 32.6000 -45.6000 main 1686 1685 _____________O -1 32.6000 -45.6000 TS 50 12 76
1865252N15319 1865 17 NA NA NOT_NAMED 1865-09-15 21:00:00 TS 32.7496 -44.8998 main 1699 1688 _____________P -1 32.7496 -44.8998 TS 50 12 76
1865252N15319 1865 17 NA NA NOT_NAMED 1865-09-16 00:00:00 TS 32.9000 -44.2000 main 1704 1704 _____________O -1 32.9000 -44.2000 TS 50 12 76
1865252N15319 1865 17 NA NA NOT_NAMED 1865-09-16 03:00:00 TS 33.0497 -43.4923 main 1721 1711 _____________P -1 33.0497 -43.4923 TS 52 12 76
1865252N15319 1865 17 NA NA NOT_NAMED 1865-09-16 06:00:00 TS 33.2000 -42.8000 main 1730 1730 _____________O -1 33.2000 -42.8000 TS 55 12 78
1865252N15319 1865 17 NA NA NOT_NAMED 1865-09-16 09:00:00 TS 33.3052 -42.0894 main 1751 1750 _____________P -1 33.3052 -42.0894 TS 55 11 75
1865252N15319 1865 17 NA NA NOT_NAMED 1865-09-16 12:00:00 TS 33.5000 -41.5000 main 1759 1735 _____________O -1 33.5000 -41.5000 TS 55 10 53
1865252N15319 1865 17 NA NA NOT_NAMED 1865-09-16 15:00:00 TS 33.8969 -41.1472 main 1740 1703 _____________P -1 33.8969 -41.1472 TS 57 10 29
1865252N15319 1865 17 NA NA NOT_NAMED 1865-09-16 18:00:00 TS 34.4000 -40.9000 main 1703 1673 _____________O -1 34.4000 -40.9000 TS 60 11 24
1865252N15319 1865 17 NA NA NOT_NAMED 1865-09-16 21:00:00 TS 34.8999 -40.5998 main 1673 1644 _____________P -1 34.8999 -40.5998 TS 60 11 26
1865252N15319 1865 17 NA NA NOT_NAMED 1865-09-17 00:00:00 TS 35.4000 -40.3000 main 1644 1619 _____________O -1 35.4000 -40.3000 TS 60 11 28
1865252N15319 1865 17 NA NA NOT_NAMED 1865-09-17 03:00:00 TS 35.8500 -39.9921 main 1625 1598 _____________P -1 35.8500 -39.9921 TS 60 10 28
1865252N15319 1865 17 NA NA NOT_NAMED 1865-09-17 06:00:00 TS 36.3000 -39.7000 main 1598 1579 _____________O -1 36.3000 -39.7000 TS 60 8 26
1865252N15319 1865 17 NA NA NOT_NAMED 1865-09-17 09:00:00 TS 36.6039 -39.5392 main 1585 1547 _____________P -1 36.6039 -39.5392 TS 60 11 22
1865252N15319 1865 17 NA NA NOT_NAMED 1865-09-17 12:00:00 TS 37.3000 -39.2000 main 1545 1479 _____________O -1 37.3000 -39.2000 TS 60 25 22
1865252N15319 1865 17 NA NA NOT_NAMED 1865-09-17 15:00:00 TS 38.9083 -38.3907 main 1471 1417 _____________P -1 38.9083 -38.3907 TS 62 38 23
1865252N15319 1865 17 NA NA NOT_NAMED 1865-09-17 18:00:00 TS 40.8000 -37.3000 main 1417 1403 _____________O -1 40.8000 -37.3000 HU 65 37 26
1865252N15319 1865 17 NA NA NOT_NAMED 1865-09-17 21:00:00 TS 42.2172 -36.2452 main 1412 1406 _____________P -1 42.2172 -36.2452 HU 62 34 30
1865252N15319 1865 17 NA NA NOT_NAMED 1865-09-18 00:00:00 ET 43.7000 -35.0000 main 1423 1423 _____________O -1 43.7000 -35.0000 EX 60 40 32
1865252N15319 1865 17 NA NA NOT_NAMED 1865-09-18 03:00:00 ET 45.5788 -33.3303 main 1480 1480 _____________P -1 45.5788 -33.3303 EX 60 46 31
1865252N15319 1865 17 NA NA NOT_NAMED 1865-09-18 06:00:00 ET 47.6000 -31.6000 main 1564 1417 _____________O -1 47.6000 -31.6000 EX 60 44 28
1865252N15319 1865 17 NA NA NOT_NAMED 1865-09-18 09:00:00 ET 49.4261 -30.2380 main 1406 1272 _____________P -1 49.4261 -30.2380 EX 60 42 23
1865252N15319 1865 17 NA NA NOT_NAMED 1865-09-18 12:00:00 ET 51.5000 -29.0000 main 1263 1131 _____________O -1 51.5000 -29.0000 EX 60 49 19
1865252N15319 1865 17 NA NA NOT_NAMED 1865-09-18 15:00:00 ET 54.0955 -27.6210 main 1108 796 _____________P -1 54.0955 -27.6210 EX 60 58 18
1865252N15319 1865 17 NA NA NOT_NAMED 1865-09-18 18:00:00 ET 57.0000 -26.0000 main 773 _____________O -1 57.0000 -26.0000 EX 60 61 17

About IBTrACS Database

This database is a web-friendly format of International Best Track Archive for Climate Stewardship (IBTrACS), a global best track data archive curated by NOAA dating back to 1842.

Updated: 2021-10-21